createdAt,value
2022-12-27T00:01:30.850Z,5.70
2022-12-27T00:03:57.401Z,8.20
2022-12-27T00:06:26.138Z,3.80
2022-12-27T00:08:53.144Z,5.33
2022-12-27T00:11:22.857Z,7.10
2022-12-27T00:13:49.769Z,9.90
2022-12-27T00:16:19.104Z,5.23
2022-12-27T00:18:46.562Z,2.77
2022-12-27T00:21:14.071Z,6.30
2022-12-27T00:23:45.070Z,7.97
2022-12-27T00:26:14.714Z,9.10
2022-12-27T00:28:41.239Z,3.80
2022-12-27T00:31:08.420Z,4.97
2022-12-27T00:33:36.716Z,4.67
2022-12-27T00:36:05.262Z,5.53
2022-12-27T00:38:32.556Z,5.87
2022-12-27T00:40:59.729Z,10.87
2022-12-27T00:43:26.431Z,4.60
2022-12-27T00:45:53.496Z,4.43
2022-12-27T00:48:19.956Z,7.53
2022-12-27T00:50:47.131Z,3.47
2022-12-27T00:53:14.403Z,9.07
2022-12-27T00:55:45.091Z,6.03
2022-12-27T00:58:11.730Z,7.00
2022-12-27T01:00:38.167Z,10.13
2022-12-27T01:03:04.545Z,5.03
2022-12-27T01:05:31.053Z,6.63
2022-12-27T01:07:57.463Z,7.43
2022-12-27T01:10:24.584Z,7.47
2022-12-27T01:12:50.964Z,6.97
2022-12-27T01:15:17.401Z,3.33
2022-12-27T01:17:43.786Z,6.80
2022-12-27T01:20:10.533Z,6.57
2022-12-27T01:22:36.970Z,3.93
2022-12-27T01:25:03.709Z,5.03
2022-12-27T01:27:30.089Z,2.60
2022-12-27T01:29:56.518Z,3.00
2022-12-27T01:32:22.945Z,4.40
2022-12-27T01:34:50.903Z,8.50
2022-12-27T01:37:17.324Z,4.00
2022-12-27T01:39:43.707Z,7.57
2022-12-27T01:42:35.598Z,8.83
2022-12-27T01:45:02.673Z,3.60
2022-12-27T01:47:54.611Z,4.77
2022-12-27T01:50:24.004Z,5.00
2022-12-27T01:53:21.473Z,5.87
2022-12-27T01:56:20.559Z,6.00
2022-12-27T01:58:55.844Z,2.90
2022-12-27T02:01:28.887Z,5.63
2022-12-27T02:04:09.041Z,4.60
2022-12-27T02:06:38.449Z,3.47
2022-12-27T02:09:23.059Z,4.70
2022-12-27T02:11:56.330Z,9.10
2022-12-27T02:14:33.299Z,4.87
2022-12-27T02:17:03.115Z,2.43
2022-12-27T02:19:41.412Z,2.60
2022-12-27T02:22:19.917Z,4.70
2022-12-27T02:25:12.867Z,5.97
2022-12-27T02:27:57.307Z,3.57
2022-12-27T02:30:24.225Z,3.10
2022-12-27T02:33:03.353Z,5.27
2022-12-27T02:35:53.899Z,5.03
2022-12-27T02:38:34.970Z,7.00
2022-12-27T02:41:22.827Z,3.73
2022-12-27T02:44:07.656Z,2.13
2022-12-27T02:46:53.107Z,2.47
2022-12-27T02:49:45.805Z,2.30
2022-12-27T02:52:50.551Z,3.57
2022-12-27T02:55:35.911Z,4.10
2022-12-27T02:58:59.964Z,3.60
2022-12-27T03:02:06.429Z,2.90
2022-12-27T03:04:57.653Z,4.53
2022-12-27T03:07:42.861Z,2.90
2022-12-27T03:11:00.668Z,7.03
2022-12-27T03:14:01.222Z,6.47
2022-12-27T03:16:57.980Z,3.23
2022-12-27T03:20:09.330Z,6.07
2022-12-27T03:22:57.954Z,7.03
2022-12-27T03:25:28.689Z,4.03
2022-12-27T03:28:28.765Z,2.07
2022-12-27T03:31:21.157Z,3.40
2022-12-27T03:33:50.197Z,2.40
2022-12-27T03:36:40.493Z,3.40
2022-12-27T03:39:16.565Z,4.57
2022-12-27T03:42:09.503Z,3.93
2022-12-27T03:44:36.044Z,5.67
2022-12-27T03:47:12.688Z,6.40
2022-12-27T03:49:45.198Z,3.50
2022-12-27T03:52:23.827Z,1.87
2022-12-27T03:54:51.884Z,2.70
2022-12-27T03:57:21.535Z,5.23
2022-12-27T03:59:47.980Z,3.00
2022-12-27T04:02:14.759Z,4.20
2022-12-27T04:04:41.580Z,3.43
2022-12-27T04:07:08.053Z,3.70
2022-12-27T04:09:52.868Z,5.50
2022-12-27T04:12:37.919Z,2.77
2022-12-27T04:15:23.793Z,8.07
2022-12-27T04:18:08.963Z,7.53
2022-12-27T04:20:53.755Z,6.40
2022-12-27T04:23:38.631Z,4.40
2022-12-27T04:26:23.673Z,3.80
2022-12-27T04:29:09.038Z,5.70
2022-12-27T04:31:53.915Z,7.10
2022-12-27T04:34:39.076Z,2.70
2022-12-27T04:37:06.047Z,2.83
2022-12-27T04:39:32.618Z,3.30
2022-12-27T04:42:17.647Z,6.67
2022-12-27T04:45:02.527Z,3.70
2022-12-27T04:47:47.789Z,3.00
2022-12-27T04:50:53.332Z,2.37
2022-12-27T04:53:40.162Z,4.07
2022-12-27T04:56:07.219Z,6.93
2022-12-27T04:58:34.642Z,2.93
2022-12-27T05:01:21.861Z,6.00
2022-12-27T05:03:50.796Z,2.73
2022-12-27T05:06:18.701Z,5.53
2022-12-27T05:09:04.047Z,5.13
2022-12-27T05:11:49.300Z,6.43
2022-12-27T05:14:15.942Z,4.30
2022-12-27T05:16:44.220Z,5.90
2022-12-27T05:19:12.953Z,3.27
2022-12-27T05:22:03.081Z,4.80
2022-12-27T05:24:48.776Z,5.23
2022-12-27T05:27:15.702Z,3.10
2022-12-27T05:29:42.139Z,2.10
2022-12-27T05:32:13.082Z,4.40
2022-12-27T05:34:40.260Z,5.30
2022-12-27T05:37:06.662Z,3.50
2022-12-27T05:39:33.103Z,3.60
2022-12-27T05:41:59.457Z,2.37
2022-12-27T05:44:25.861Z,7.10
2022-12-27T05:46:54.149Z,6.73
2022-12-27T05:49:20.616Z,7.77
2022-12-27T05:51:47.210Z,4.90
2022-12-27T05:54:13.608Z,3.30
2022-12-27T05:56:40.033Z,4.10
2022-12-27T05:59:08.048Z,4.13
2022-12-27T06:01:34.764Z,2.47
2022-12-27T06:04:01.254Z,7.73
2022-12-27T06:06:28.835Z,5.17
2022-12-27T06:08:55.252Z,3.60
2022-12-27T06:11:21.682Z,2.43
2022-12-27T06:13:51.368Z,1.80
2022-12-27T06:16:19.056Z,3.77
2022-12-27T06:18:45.601Z,3.10
2022-12-27T06:21:20.691Z,4.00
2022-12-27T06:23:48.139Z,4.70
2022-12-27T06:26:20.944Z,5.17
2022-12-27T06:28:49.578Z,4.30
2022-12-27T06:31:17.246Z,7.30
2022-12-27T06:33:43.655Z,7.60
2022-12-27T06:36:12.907Z,2.90
2022-12-27T06:38:40.001Z,2.97
2022-12-27T06:41:09.488Z,2.70
2022-12-27T06:43:36.183Z,5.40
2022-12-27T06:46:06.076Z,3.10
2022-12-27T06:48:32.937Z,4.40
2022-12-27T06:50:59.689Z,9.53
2022-12-27T06:53:27.197Z,4.37
2022-12-27T06:55:53.642Z,3.30
2022-12-27T06:58:20.070Z,6.13
2022-12-27T07:00:46.609Z,8.83
2022-12-27T07:03:13.130Z,2.77
2022-12-27T07:05:39.599Z,2.60
2022-12-27T07:08:06.317Z,6.63
2022-12-27T07:10:32.712Z,4.73
2022-12-27T07:12:59.366Z,3.90
2022-12-27T07:15:25.818Z,3.73
2022-12-27T07:17:52.278Z,5.67
2022-12-27T07:20:18.802Z,4.20
2022-12-27T07:22:45.235Z,4.20
2022-12-27T07:25:11.691Z,4.83
2022-12-27T07:27:38.172Z,2.30
2022-12-27T07:30:05.511Z,16.70
2022-12-27T07:32:32.028Z,10.20
2022-12-27T07:34:58.390Z,8.07
2022-12-27T07:37:24.814Z,4.83
2022-12-27T07:39:51.212Z,3.00
2022-12-27T07:42:17.659Z,9.10
2022-12-27T07:44:44.011Z,4.00
2022-12-27T07:47:10.499Z,8.43
2022-12-27T07:49:36.919Z,3.77
2022-12-27T07:52:03.393Z,7.40
2022-12-27T07:54:29.765Z,2.43
2022-12-27T07:56:56.141Z,4.50
2022-12-27T07:59:22.496Z,2.47
2022-12-27T08:02:07.302Z,3.23
2022-12-27T08:04:37.060Z,4.13
2022-12-27T08:07:08.440Z,6.50
2022-12-27T08:09:38.725Z,7.53
2022-12-27T08:12:05.998Z,7.63
2022-12-27T08:14:32.545Z,3.70
2022-12-27T08:17:04.745Z,3.77
2022-12-27T08:19:31.320Z,5.80
2022-12-27T08:21:57.710Z,6.47
2022-12-27T08:24:24.879Z,10.47
2022-12-27T08:26:51.259Z,6.03
2022-12-27T08:29:17.625Z,4.20
2022-12-27T08:31:44.072Z,8.10
2022-12-27T08:34:10.449Z,6.63
2022-12-27T08:36:54.833Z,5.23
2022-12-27T08:39:21.873Z,5.50
2022-12-27T08:41:48.364Z,8.10
2022-12-27T08:44:15.367Z,13.17
2022-12-27T08:46:41.818Z,5.83
2022-12-27T08:49:08.228Z,7.40
2022-12-27T08:51:40.689Z,8.70
2022-12-27T08:54:07.932Z,7.47
2022-12-27T08:56:34.348Z,8.10
2022-12-27T08:59:00.865Z,5.73
2022-12-27T09:01:27.588Z,4.83
2022-12-27T09:03:54.113Z,6.43
2022-12-27T09:06:23.082Z,4.77
2022-12-27T09:08:50.851Z,5.10
2022-12-27T09:11:23.810Z,5.47
2022-12-27T09:13:50.560Z,3.67
2022-12-27T09:16:20.574Z,8.00
2022-12-27T09:18:50.357Z,4.87
2022-12-27T09:21:18.288Z,7.80
2022-12-27T09:23:45.542Z,4.57
2022-12-27T09:26:29.140Z,6.07
2022-12-27T09:28:56.635Z,6.97
2022-12-27T09:31:24.690Z,5.00
2022-12-27T09:33:52.479Z,5.60
2022-12-27T09:36:22.081Z,7.20
2022-12-27T09:38:49.871Z,5.83
2022-12-27T09:44:52.654Z,5.00
2022-12-27T09:47:28.398Z,4.90
2022-12-27T09:50:03.433Z,6.87
2022-12-27T09:52:41.900Z,8.17
2022-12-27T09:55:32.851Z,5.40
2022-12-27T09:58:15.984Z,8.90
2022-12-27T10:00:46.378Z,6.20
2022-12-27T10:03:13.197Z,5.97
2022-12-27T10:05:42.196Z,7.10
2022-12-27T10:08:42.706Z,4.80
2022-12-27T10:11:37.541Z,5.27
2022-12-27T10:14:13.152Z,7.93
2022-12-27T10:16:48.609Z,6.17
2022-12-27T10:19:20.883Z,5.33
2022-12-27T10:22:01.044Z,6.20
2022-12-27T10:24:39.732Z,4.67
2022-12-27T10:27:20.705Z,9.57
2022-12-27T10:29:48.792Z,8.37
2022-12-27T10:32:16.126Z,4.67
2022-12-27T10:34:42.688Z,7.70
2022-12-27T10:37:15.667Z,8.33
2022-12-27T10:39:42.917Z,6.73
2022-12-27T10:42:35.516Z,3.40
2022-12-27T10:45:30.169Z,4.53
2022-12-27T10:48:00.150Z,4.40
2022-12-27T10:50:29.294Z,7.10
2022-12-27T10:52:57.641Z,4.50
2022-12-27T10:55:38.126Z,4.73
2022-12-27T10:58:26.470Z,6.03
2022-12-27T11:00:55.203Z,5.13
2022-12-27T11:03:22.072Z,5.13
2022-12-27T11:06:00.728Z,4.47
2022-12-27T11:08:27.429Z,3.80
2022-12-27T11:11:12.765Z,3.63
2022-12-27T11:13:39.892Z,5.40
2022-12-27T11:16:13.229Z,3.40
2022-12-27T11:18:46.542Z,3.73
2022-12-27T11:21:23.899Z,5.33
2022-12-27T11:23:56.784Z,2.60
2022-12-27T11:26:30.660Z,4.40
2022-12-27T11:29:00.471Z,2.53
2022-12-27T11:31:40.361Z,4.97
2022-12-27T11:34:15.279Z,3.73
2022-12-27T11:36:45.475Z,5.97
2022-12-27T11:39:44.496Z,4.83
2022-12-27T11:42:21.799Z,3.97
2022-12-27T11:45:04.811Z,5.37
2022-12-27T11:47:45.150Z,4.60
2022-12-27T11:50:24.576Z,3.10
2022-12-27T11:53:28.578Z,7.10
2022-12-27T11:56:24.153Z,6.43
2022-12-27T11:59:20.876Z,4.80
2022-12-27T12:01:53.402Z,6.20
2022-12-27T12:04:41.818Z,5.50
2022-12-27T12:07:20.340Z,2.57
2022-12-27T12:10:05.401Z,5.73
2022-12-27T12:13:15.752Z,2.50
2022-12-27T12:15:55.597Z,5.20
2022-12-27T12:18:45.276Z,3.73
2022-12-27T12:21:34.850Z,4.90
2022-12-27T12:24:03.962Z,4.33
2022-12-27T12:26:56.100Z,3.43
2022-12-27T12:29:37.602Z,5.30
2022-12-27T12:32:45.418Z,3.07
2022-12-27T12:35:32.971Z,5.67
2022-12-27T12:38:05.600Z,3.83
2022-12-27T12:41:01.437Z,4.57
2022-12-27T12:44:00.110Z,3.13
2022-12-27T12:46:36.606Z,7.40
2022-12-27T12:49:24.134Z,5.97
2022-12-27T12:52:23.613Z,4.40
2022-12-27T12:55:19.744Z,5.10
2022-12-27T12:58:06.546Z,5.30
2022-12-27T13:01:27.303Z,5.30
2022-12-27T13:04:10.773Z,7.63
2022-12-27T13:07:17.881Z,6.00
2022-12-27T13:09:44.326Z,5.40
2022-12-27T13:12:18.513Z,6.20
2022-12-27T13:15:23.345Z,6.90
2022-12-27T13:18:03.412Z,7.77
2022-12-27T13:20:36.012Z,6.07
2022-12-27T13:23:12.258Z,6.97
2022-12-27T13:25:53.767Z,4.70
2022-12-27T13:28:51.140Z,4.23
2022-12-27T13:31:29.682Z,5.97
2022-12-27T13:34:26.675Z,10.27
2022-12-27T13:37:29.779Z,5.50
2022-12-27T13:40:16.673Z,3.20
2022-12-27T13:43:10.987Z,11.37
2022-12-27T13:45:43.310Z,4.27
2022-12-27T13:48:16.264Z,7.93
2022-12-27T13:50:48.486Z,6.00
2022-12-27T13:53:27.374Z,6.67
2022-12-27T13:56:52.729Z,3.77
2022-12-27T13:59:42.313Z,6.53
2022-12-27T14:02:23.149Z,6.30
2022-12-27T14:05:01.859Z,7.27
2022-12-27T14:07:40.760Z,5.90
2022-12-27T14:10:19.430Z,7.43
2022-12-27T14:13:12.763Z,5.07
2022-12-27T14:15:57.979Z,4.00
2022-12-27T14:18:44.489Z,3.40
2022-12-27T14:21:19.788Z,7.27
2022-12-27T14:24:20.737Z,10.03
2022-12-27T14:27:21.079Z,6.20
2022-12-27T14:30:06.322Z,6.20
2022-12-27T14:33:03.357Z,9.30
2022-12-27T14:35:38.956Z,6.20
2022-12-27T14:38:29.290Z,9.80
2022-12-27T14:41:20.710Z,3.60
2022-12-27T14:44:25.229Z,7.87
2022-12-27T14:47:19.393Z,5.40
2022-12-27T14:49:51.751Z,5.30
2022-12-27T14:52:55.864Z,3.83
2022-12-27T14:55:35.918Z,7.10
2022-12-27T14:58:04.921Z,6.20
2022-12-27T15:00:53.339Z,6.43
2022-12-27T15:03:41.459Z,5.83
2022-12-27T15:06:40.077Z,8.47
2022-12-27T15:09:27.911Z,5.70
2022-12-27T15:12:21.833Z,6.87
2022-12-27T15:15:01.170Z,7.50
2022-12-27T15:17:39.442Z,7.73
2022-12-27T15:20:20.614Z,7.70
2022-12-27T15:22:49.824Z,3.70
2022-12-27T15:25:35.241Z,6.47
2022-12-27T15:28:17.061Z,7.60
2022-12-27T15:31:20.710Z,3.63
2022-12-27T15:34:08.659Z,5.73
2022-12-27T15:36:47.049Z,6.13
2022-12-27T15:39:32.268Z,5.90
2022-12-27T15:42:02.623Z,8.13
2022-12-27T15:44:43.185Z,4.93
2022-12-27T15:47:39.141Z,3.23
2022-12-27T15:50:28.999Z,5.83
2022-12-27T15:53:25.308Z,4.90
2022-12-27T15:56:08.693Z,3.53
2022-12-27T15:58:35.371Z,6.63
2022-12-27T16:01:22.116Z,3.87
2022-12-27T16:03:53.251Z,7.00
2022-12-27T16:06:34.628Z,4.40
2022-12-27T16:09:23.234Z,5.10
2022-12-27T16:12:01.985Z,8.07
2022-12-27T16:14:40.616Z,4.77
2022-12-27T16:17:31.222Z,5.00
2022-12-27T16:20:21.323Z,8.10
2022-12-27T16:22:50.846Z,4.50
2022-12-27T16:25:37.117Z,6.73
2022-12-27T16:28:07.775Z,5.57
2022-12-27T16:30:55.511Z,3.90
2022-12-27T16:33:33.441Z,7.17
2022-12-27T16:36:11.858Z,9.90
2022-12-27T16:39:04.619Z,5.53
2022-12-27T16:41:54.551Z,10.00
2022-12-27T16:44:23.700Z,5.60
2022-12-27T16:46:56.410Z,4.10
2022-12-27T16:49:28.778Z,6.60
2022-12-27T16:52:13.281Z,5.27
2022-12-27T16:55:08.184Z,10.87
2022-12-27T16:57:42.007Z,8.00
2022-12-27T17:00:08.468Z,10.00
2022-12-27T17:02:39.837Z,5.40
2022-12-27T17:05:15.236Z,6.43
2022-12-27T17:08:09.466Z,8.37
2022-12-27T17:10:50.856Z,8.30
2022-12-27T17:13:27.901Z,7.60
2022-12-27T17:16:12.665Z,8.27
2022-12-27T17:18:50.603Z,6.30
2022-12-27T17:21:30.948Z,9.13
2022-12-27T17:24:00.321Z,5.57
2022-12-27T17:26:47.001Z,8.80
2022-12-27T17:29:51.360Z,9.60
2022-12-27T17:32:51.823Z,7.27
2022-12-27T17:35:42.945Z,9.93
2022-12-27T17:38:44.433Z,10.80
2022-12-27T17:41:52.281Z,13.17
2022-12-27T17:44:37.990Z,7.80
2022-12-27T17:47:31.203Z,7.57
2022-12-27T17:50:14.403Z,8.07
2022-12-27T17:52:59.526Z,7.63
2022-12-27T17:55:47.592Z,15.07
2022-12-27T17:58:16.376Z,20.40
2022-12-27T18:00:57.204Z,13.97
2022-12-27T18:03:32.723Z,8.13
2022-12-27T18:05:59.225Z,15.20
2022-12-27T18:08:29.464Z,9.47
2022-12-27T18:11:01.467Z,11.93
2022-12-27T18:13:33.166Z,7.67
2022-12-27T18:16:05.568Z,5.30
2022-12-27T18:18:34.169Z,5.27
2022-12-27T18:21:05.807Z,6.30
2022-12-27T18:23:43.088Z,9.10
2022-12-27T18:26:13.447Z,5.17
2022-12-27T18:28:41.492Z,8.37
2022-12-27T18:31:35.281Z,8.57
2022-12-27T18:34:23.462Z,7.00
2022-12-27T18:37:00.884Z,4.43
2022-12-27T18:39:33.906Z,4.90
2022-12-27T18:42:11.922Z,5.83
2022-12-27T18:44:46.344Z,9.47
2022-12-27T18:47:27.232Z,8.67
2022-12-27T18:50:01.023Z,6.83
2022-12-27T18:52:34.702Z,7.70
2022-12-27T18:55:14.338Z,7.67
2022-12-27T18:57:40.977Z,6.03
2022-12-27T19:00:13.675Z,4.37
2022-12-27T19:02:42.175Z,4.67
2022-12-27T19:05:17.309Z,4.13
2022-12-27T19:07:43.836Z,5.67
2022-12-27T19:10:20.683Z,6.77
2022-12-27T19:12:47.632Z,6.40
2022-12-27T19:15:24.869Z,9.77
2022-12-27T19:17:55.082Z,8.87
2022-12-27T19:20:34.662Z,5.50
2022-12-27T19:23:05.054Z,7.50
2022-12-27T19:25:37.495Z,6.90
2022-12-27T19:28:09.961Z,8.50
2022-12-27T19:30:42.037Z,10.27
2022-12-27T19:33:15.329Z,17.10
2022-12-27T19:35:42.695Z,13.67
2022-12-27T19:38:20.638Z,12.50
2022-12-27T19:40:50.622Z,12.90
2022-12-27T19:43:18.086Z,9.53
2022-12-27T19:45:44.542Z,10.13
2022-12-27T19:48:11.540Z,13.93
2022-12-27T19:50:43.157Z,12.73
2022-12-27T19:53:15.363Z,11.53
2022-12-27T19:55:41.929Z,12.00
2022-12-27T19:58:27.846Z,13.77
2022-12-27T20:00:55.393Z,9.93
2022-12-27T20:03:21.887Z,12.73
2022-12-27T20:06:12.669Z,15.40
2022-12-27T20:08:42.710Z,13.13
2022-12-27T20:11:14.613Z,9.60
2022-12-27T20:13:41.516Z,9.80
2022-12-27T20:16:10.887Z,13.03
2022-12-27T20:18:38.701Z,13.60
2022-12-27T20:21:05.962Z,18.33
2022-12-27T20:23:32.609Z,18.00
2022-12-27T20:25:59.143Z,12.47
2022-12-27T20:28:25.565Z,11.10
2022-12-27T20:30:52.040Z,10.37
2022-12-27T20:33:18.447Z,15.30
2022-12-27T20:35:45.471Z,10.33
2022-12-27T20:38:12.384Z,9.67
2022-12-27T20:40:40.501Z,10.07
2022-12-27T20:43:06.914Z,12.13
2022-12-27T20:45:34.241Z,13.50
2022-12-27T20:48:00.717Z,10.67
2022-12-27T20:50:27.152Z,11.47
2022-12-27T20:52:53.571Z,10.60
2022-12-27T20:55:19.923Z,5.57
2022-12-27T20:57:46.353Z,6.30
2022-12-27T21:00:14.455Z,10.33
2022-12-27T21:02:41.139Z,11.27
2022-12-27T21:05:08.351Z,9.17
2022-12-27T21:07:35.319Z,12.83
2022-12-27T21:10:02.107Z,9.10
2022-12-27T21:12:28.546Z,10.43
2022-12-27T21:14:54.974Z,8.10
2022-12-27T21:17:21.337Z,6.17
2022-12-27T21:19:47.758Z,7.97
2022-12-27T21:22:14.192Z,10.17
2022-12-27T21:24:40.636Z,13.03
2022-12-27T21:27:07.036Z,12.17
2022-12-27T21:29:33.451Z,12.37
2022-12-27T21:32:01.445Z,11.50
2022-12-27T21:34:28.041Z,11.00
2022-12-27T21:36:54.435Z,12.03
2022-12-27T21:39:20.834Z,10.57
2022-12-27T21:41:47.257Z,17.83
2022-12-27T21:44:13.668Z,16.20
2022-12-27T21:46:42.053Z,11.20
2022-12-27T21:49:12.358Z,11.57
2022-12-27T21:51:40.976Z,8.23
2022-12-27T21:54:08.070Z,11.10
2022-12-27T21:56:34.508Z,11.43
2022-12-27T21:59:02.919Z,16.13
2022-12-27T22:01:50.610Z,6.40
2022-12-27T22:04:17.924Z,8.10
2022-12-27T22:06:47.164Z,12.73
2022-12-27T22:09:14.233Z,17.67
2022-12-27T22:11:40.689Z,10.93
2022-12-27T22:14:07.202Z,12.20
2022-12-27T22:16:36.519Z,11.27
2022-12-27T22:19:06.137Z,11.13
2022-12-27T22:21:34.416Z,12.60
2022-12-27T22:24:02.273Z,10.67
2022-12-27T22:26:31.596Z,15.97
2022-12-27T22:28:58.096Z,14.00
2022-12-27T22:31:27.596Z,9.90
2022-12-27T22:33:54.063Z,15.33
2022-12-27T22:36:26.355Z,8.43
2022-12-27T22:38:55.839Z,11.40
2022-12-27T22:41:26.033Z,11.33
2022-12-27T22:44:04.371Z,14.00
2022-12-27T22:46:51.341Z,12.60
2022-12-27T22:49:18.113Z,8.80
2022-12-27T22:51:45.053Z,7.97
2022-12-27T22:54:11.452Z,13.20
2022-12-27T22:56:40.226Z,7.97
2022-12-27T22:59:08.345Z,10.20
2022-12-27T23:01:35.357Z,14.20
2022-12-27T23:04:05.129Z,10.57
2022-12-27T23:06:33.990Z,12.17
2022-12-27T23:09:01.194Z,12.63
2022-12-27T23:11:30.698Z,8.70
2022-12-27T23:14:00.426Z,12.27
2022-12-27T23:16:27.417Z,8.00
2022-12-27T23:18:54.264Z,5.30
2022-12-27T23:21:24.074Z,7.70
2022-12-27T23:23:51.960Z,9.77
2022-12-27T23:26:21.322Z,8.20
2022-12-27T23:28:51.296Z,7.20
2022-12-27T23:31:19.158Z,7.00
2022-12-27T23:33:45.783Z,5.47
2022-12-27T23:36:13.443Z,5.00
2022-12-27T23:38:44.256Z,9.00
2022-12-27T23:41:16.459Z,7.63
2022-12-27T23:43:58.528Z,8.50
2022-12-27T23:46:30.939Z,5.63
2022-12-27T23:48:59.125Z,5.90
2022-12-27T23:51:26.453Z,5.70
2022-12-27T23:53:52.935Z,6.17
2022-12-27T23:56:33.817Z,4.40
2022-12-27T23:59:02.991Z,8.53
